sensor_id;sensor_type;location;lat;lon;timestamp;pressure;altitude;pressure_sealevel;temperature;humidity
15678;BME280;7939;50.814;6.368;2023-04-29T00:02:17;99690.78;;;16.77;60.47
15678;BME280;7939;50.814;6.368;2023-04-29T00:04:44;99693.50;;;16.73;59.85
15678;BME280;7939;50.814;6.368;2023-04-29T00:07:11;99701.19;;;16.74;60.02
15678;BME280;7939;50.814;6.368;2023-04-29T00:09:40;99699.53;;;16.71;59.65
15678;BME280;7939;50.814;6.368;2023-04-29T00:12:06;99699.53;;;16.71;59.98
15678;BME280;7939;50.814;6.368;2023-04-29T00:14:34;99694.41;;;16.70;59.74
15678;BME280;7939;50.814;6.368;2023-04-29T00:17:01;99702.09;;;16.71;59.48
15678;BME280;7939;50.814;6.368;2023-04-29T00:19:29;99701.25;;;16.73;59.47
15678;BME280;7939;50.814;6.368;2023-04-29T00:21:55;99705.59;;;16.69;59.64
15678;BME280;7939;50.814;6.368;2023-04-29T00:24:22;99711.69;;;16.66;59.58
15678;BME280;7939;50.814;6.368;2023-04-29T00:26:49;99710.88;;;16.64;59.20
15678;BME280;7939;50.814;6.368;2023-04-29T00:29:16;99713.44;;;16.64;59.12
15678;BME280;7939;50.814;6.368;2023-04-29T00:31:42;99722.03;;;16.65;58.91
15678;BME280;7939;50.814;6.368;2023-04-29T00:34:10;99712.56;;;16.65;58.98
15678;BME280;7939;50.814;6.368;2023-04-29T00:36:38;99709.13;;;16.65;59.47
15678;BME280;7939;50.814;6.368;2023-04-29T00:39:05;99716.03;;;16.64;59.17
15678;BME280;7939;50.814;6.368;2023-04-29T00:41:32;99712.59;;;16.64;59.74
15678;BME280;7939;50.814;6.368;2023-04-29T00:43:58;99722.06;;;16.63;59.33
15678;BME280;7939;50.814;6.368;2023-04-29T00:46:25;99725.50;;;16.64;59.29
15678;BME280;7939;50.814;6.368;2023-04-29T00:48:51;99726.44;;;16.61;59.05
15678;BME280;7939;50.814;6.368;2023-04-29T00:51:18;99723.94;;;16.58;59.32
15678;BME280;7939;50.814;6.368;2023-04-29T00:53:46;99730.88;;;16.56;59.14
15678;BME280;7939;50.814;6.368;2023-04-29T00:56:13;99728.28;;;16.56;59.32
15678;BME280;7939;50.814;6.368;2023-04-29T00:58:40;99729.19;;;16.55;59.08
15678;BME280;7939;50.814;6.368;2023-04-29T01:01:14;99726.66;;;16.54;58.84
15678;BME280;7939;50.814;6.368;2023-04-29T01:03:41;99730.09;;;16.53;58.98
15678;BME280;7939;50.814;6.368;2023-04-29T01:06:14;99737.88;;;16.51;59.02
15678;BME280;7939;50.814;6.368;2023-04-29T01:08:55;99741.34;;;16.50;59.03
15678;BME280;7939;50.814;6.368;2023-04-29T01:11:30;99737.13;;;16.46;58.93
15678;BME280;7939;50.814;6.368;2023-04-29T01:14:01;99741.44;;;16.47;59.03
15678;BME280;7939;50.814;6.368;2023-04-29T01:16:36;99741.50;;;16.44;58.80
15678;BME280;7939;50.814;6.368;2023-04-29T01:19:15;99742.38;;;16.43;59.00
15678;BME280;7939;50.814;6.368;2023-04-29T01:21:46;99744.97;;;16.43;59.12
15678;BME280;7939;50.814;6.368;2023-04-29T01:24:15;99738.94;;;16.42;58.82
15678;BME280;7939;50.814;6.368;2023-04-29T01:26:45;99741.56;;;16.41;58.78
15678;BME280;7939;50.814;6.368;2023-04-29T01:29:21;99747.59;;;16.40;58.52
15678;BME280;7939;50.814;6.368;2023-04-29T01:31:57;99751.09;;;16.37;58.51
15678;BME280;7939;50.814;6.368;2023-04-29T01:34:33;99752.84;;;16.37;58.83
15678;BME280;7939;50.814;6.368;2023-04-29T01:37:06;99758.84;;;16.37;58.63
15678;BME280;7939;50.814;6.368;2023-04-29T01:39:44;99756.31;;;16.36;58.65
15678;BME280;7939;50.814;6.368;2023-04-29T01:42:14;99752.88;;;16.35;58.59
15678;BME280;7939;50.814;6.368;2023-04-29T01:44:46;99756.34;;;16.34;58.83
15678;BME280;7939;50.814;6.368;2023-04-29T01:47:15;99758.94;;;16.33;58.48
15678;BME280;7939;50.814;6.368;2023-04-29T01:49:41;99758.09;;;16.32;58.48
15678;BME280;7939;50.814;6.368;2023-04-29T01:52:11;99763.22;;;16.34;58.66
15678;BME280;7939;50.814;6.368;2023-04-29T01:54:38;99758.16;;;16.31;58.76
15678;BME280;7939;50.814;6.368;2023-04-29T01:57:05;99759.88;;;16.30;58.60
15678;BME280;7939;50.814;6.368;2023-04-29T01:59:32;99753.91;;;16.28;58.36
15678;BME280;7939;50.814;6.368;2023-04-29T02:01:58;99757.34;;;16.27;58.60
15678;BME280;7939;50.814;6.368;2023-04-29T02:04:25;99755.66;;;16.26;58.57
15678;BME280;7939;50.814;6.368;2023-04-29T02:06:52;99758.25;;;16.26;58.34
15678;BME280;7939;50.814;6.368;2023-04-29T02:09:18;99759.97;;;16.26;58.56
15678;BME280;7939;50.814;6.368;2023-04-29T02:11:46;99758.28;;;16.25;58.39
15678;BME280;7939;50.814;6.368;2023-04-29T02:14:12;99766.03;;;16.25;58.53
15678;BME280;7939;50.814;6.368;2023-04-29T02:16:39;99766.06;;;16.23;58.96
15678;BME280;7939;50.814;6.368;2023-04-29T02:19:09;99765.19;;;16.24;58.28
15678;BME280;7939;50.814;6.368;2023-04-29T02:21:35;99766.97;;;16.22;58.39
15678;BME280;7939;50.814;6.368;2023-04-29T02:24:04;99764.38;;;16.22;58.64
15678;BME280;7939;50.814;6.368;2023-04-29T02:26:31;99766.13;;;16.20;58.44
15678;BME280;7939;50.814;6.368;2023-04-29T02:28:59;99770.41;;;16.21;58.72
15678;BME280;7939;50.814;6.368;2023-04-29T02:31:27;99775.59;;;16.19;58.59
15678;BME280;7939;50.814;6.368;2023-04-29T02:33:54;99773.13;;;16.15;58.57
15678;BME280;7939;50.814;6.368;2023-04-29T02:36:21;99770.53;;;16.16;58.39
15678;BME280;7939;50.814;6.368;2023-04-29T02:38:48;99777.41;;;16.16;58.55
15678;BME280;7939;50.814;6.368;2023-04-29T02:41:16;99786.88;;;16.15;58.74
15678;BME280;7939;50.814;6.368;2023-04-29T02:43:43;99780.03;;;16.13;58.62
15678;BME280;7939;50.814;6.368;2023-04-29T02:46:11;99780.94;;;16.12;58.44
15678;BME280;7939;50.814;6.368;2023-04-29T02:48:38;99792.13;;;16.11;58.67
15678;BME280;7939;50.814;6.368;2023-04-29T02:51:05;99792.13;;;16.11;58.76
15678;BME280;7939;50.814;6.368;2023-04-29T02:53:31;99799.97;;;16.06;58.62
15678;BME280;7939;50.814;6.368;2023-04-29T02:55:58;99800.88;;;16.04;58.72
15678;BME280;7939;50.814;6.368;2023-04-29T02:58:25;99797.41;;;16.05;58.51
15678;BME280;7939;50.814;6.368;2023-04-29T03:00:51;99793.16;;;16.04;58.47
15678;BME280;7939;50.814;6.368;2023-04-29T03:03:19;99804.25;;;16.06;58.59
15678;BME280;7939;50.814;6.368;2023-04-29T03:05:47;99799.97;;;16.06;58.57
15678;BME280;7939;50.814;6.368;2023-04-29T03:08:14;99806.00;;;16.05;58.59
15678;BME280;7939;50.814;6.368;2023-04-29T03:10:41;99805.16;;;16.05;58.65
15678;BME280;7939;50.814;6.368;2023-04-29T03:13:07;99808.63;;;16.04;58.28
15678;BME280;7939;50.814;6.368;2023-04-29T03:15:34;99809.47;;;16.04;58.59
15678;BME280;7939;50.814;6.368;2023-04-29T03:18:01;99812.88;;;16.05;58.61
15678;BME280;7939;50.814;6.368;2023-04-29T03:20:30;99804.31;;;16.03;58.58
15678;BME280;7939;50.814;6.368;2023-04-29T03:22:57;99812.06;;;16.03;58.57
15678;BME280;7939;50.814;6.368;2023-04-29T03:25:25;99812.06;;;16.03;58.62
15678;BME280;7939;50.814;6.368;2023-04-29T03:27:52;99808.75;;;15.98;58.48
15678;BME280;7939;50.814;6.368;2023-04-29T03:30:19;99807.91;;;15.97;58.57
15678;BME280;7939;50.814;6.368;2023-04-29T03:32:46;99811.38;;;15.95;58.65
15678;BME280;7939;50.814;6.368;2023-04-29T03:35:13;99818.25;;;15.94;58.68
15678;BME280;7939;50.814;6.368;2023-04-29T03:37:41;99823.50;;;15.91;58.52
15678;BME280;7939;50.814;6.368;2023-04-29T03:40:09;99812.34;;;15.90;58.45
15678;BME280;7939;50.814;6.368;2023-04-29T03:42:36;99819.28;;;15.87;58.60
15678;BME280;7939;50.814;6.368;2023-04-29T03:45:03;99822.75;;;15.86;58.74
15678;BME280;7939;50.814;6.368;2023-04-29T03:47:30;99827.91;;;15.86;58.50
15678;BME280;7939;50.814;6.368;2023-04-29T03:49:57;99824.53;;;15.82;58.84
15678;BME280;7939;50.814;6.368;2023-04-29T03:52:23;99828.88;;;15.80;58.87
15678;BME280;7939;50.814;6.368;2023-04-29T03:54:51;99832.25;;;15.82;58.91
15678;BME280;7939;50.814;6.368;2023-04-29T03:57:18;99828.88;;;15.80;58.68
15678;BME280;7939;50.814;6.368;2023-04-29T03:59:45;99826.34;;;15.77;58.67
15678;BME280;7939;50.814;6.368;2023-04-29T04:02:14;99829.75;;;15.79;58.61
15678;BME280;7939;50.814;6.368;2023-04-29T04:04:41;99837.53;;;15.76;58.73
15678;BME280;7939;50.814;6.368;2023-04-29T04:07:07;99834.06;;;15.77;58.57
15678;BME280;7939;50.814;6.368;2023-04-29T04:09:34;99844.38;;;15.77;58.89
15678;BME280;7939;50.814;6.368;2023-04-29T04:12:02;99840.16;;;15.75;58.82
15678;BME280;7939;50.814;6.368;2023-04-29T04:14:29;99847.06;;;15.71;58.91
15678;BME280;7939;50.814;6.368;2023-04-29T04:16:56;99843.66;;;15.71;59.00
15678;BME280;7939;50.814;6.368;2023-04-29T04:19:23;99849.66;;;15.71;59.03
15678;BME280;7939;50.814;6.368;2023-04-29T04:21:51;99854.81;;;15.71;58.84
15678;BME280;7939;50.814;6.368;2023-04-29T04:24:18;99860.00;;;15.70;58.87
15678;BME280;7939;50.814;6.368;2023-04-29T04:26:45;99858.34;;;15.67;59.08
15678;BME280;7939;50.814;6.368;2023-04-29T04:29:13;99857.44;;;15.68;59.20
15678;BME280;7939;50.814;6.368;2023-04-29T04:31:40;99860.88;;;15.69;59.06
15678;BME280;7939;50.814;6.368;2023-04-29T04:34:07;99860.09;;;15.65;59.11
15678;BME280;7939;50.814;6.368;2023-04-29T04:36:34;99872.09;;;15.66;59.22
15678;BME280;7939;50.814;6.368;2023-04-29T04:39:01;99870.41;;;15.63;59.24
15678;BME280;7939;50.814;6.368;2023-04-29T04:41:28;99873.88;;;15.61;59.16
15678;BME280;7939;50.814;6.368;2023-04-29T04:43:55;99873.06;;;15.59;59.14
15678;BME280;7939;50.814;6.368;2023-04-29T04:46:24;99879.91;;;15.58;59.19
15678;BME280;7939;50.814;6.368;2023-04-29T04:48:50;99878.22;;;15.57;59.20
15678;BME280;7939;50.814;6.368;2023-04-29T04:51:17;99885.19;;;15.54;59.49
15678;BME280;7939;50.814;6.368;2023-04-29T04:53:45;99894.59;;;15.55;59.57
15678;BME280;7939;50.814;6.368;2023-04-29T04:56:11;99900.63;;;15.54;59.57
15678;BME280;7939;50.814;6.368;2023-04-29T04:58:38;99906.63;;;15.54;59.21
15678;BME280;7939;50.814;6.368;2023-04-29T05:01:04;99909.25;;;15.53;59.43
15678;BME280;7939;50.814;6.368;2023-04-29T05:03:32;99913.50;;;15.52;59.23
15678;BME280;7939;50.814;6.368;2023-04-29T05:05:59;99922.16;;;15.50;59.37
15678;BME280;7939;50.814;6.368;2023-04-29T05:08:26;99920.44;;;15.50;59.45
15678;BME280;7939;50.814;6.368;2023-04-29T05:10:52;99918.81;;;15.46;59.49
15678;BME280;7939;50.814;6.368;2023-04-29T05:13:19;99922.22;;;15.47;59.65
15678;BME280;7939;50.814;6.368;2023-04-29T05:15:46;99935.94;;;15.47;59.50
15678;BME280;7939;50.814;6.368;2023-04-29T05:18:12;99937.69;;;15.47;59.50
15678;BME280;7939;50.814;6.368;2023-04-29T05:20:40;99936.84;;;15.45;59.44
15678;BME280;7939;50.814;6.368;2023-04-29T05:23:07;99944.56;;;15.45;59.30
15678;BME280;7939;50.814;6.368;2023-04-29T05:25:34;99940.25;;;15.45;59.48
15678;BME280;7939;50.814;6.368;2023-04-29T05:28:01;99948.03;;;15.44;59.51
15678;BME280;7939;50.814;6.368;2023-04-29T05:30:28;99954.91;;;15.43;59.55
15678;BME280;7939;50.814;6.368;2023-04-29T05:32:55;99955.78;;;15.42;59.74
15678;BME280;7939;50.814;6.368;2023-04-29T05:35:21;99955.81;;;15.41;59.49
15678;BME280;7939;50.814;6.368;2023-04-29T05:37:51;99948.09;;;15.41;59.61
15678;BME280;7939;50.814;6.368;2023-04-29T05:40:17;99954.09;;;15.39;59.93
15678;BME280;7939;50.814;6.368;2023-04-29T05:42:44;99956.69;;;15.38;59.73
15678;BME280;7939;50.814;6.368;2023-04-29T05:45:11;99966.19;;;15.36;59.78
15678;BME280;7939;50.814;6.368;2023-04-29T05:47:38;99971.34;;;15.36;59.75
15678;BME280;7939;50.814;6.368;2023-04-29T05:50:05;99975.66;;;15.34;59.66
15678;BME280;7939;50.814;6.368;2023-04-29T05:52:32;99978.25;;;15.34;59.70
15678;BME280;7939;50.814;6.368;2023-04-29T05:55:00;99976.50;;;15.33;59.87
15678;BME280;7939;50.814;6.368;2023-04-29T05:57:27;99985.13;;;15.32;59.81
15678;BME280;7939;50.814;6.368;2023-04-29T05:59:54;99983.41;;;15.32;59.96
15678;BME280;7939;50.814;6.368;2023-04-29T06:02:21;99987.69;;;15.32;59.75
15678;BME280;7939;50.814;6.368;2023-04-29T06:04:48;99983.50;;;15.28;59.96
15678;BME280;7939;50.814;6.368;2023-04-29T06:07:15;99995.50;;;15.27;60.10
15678;BME280;7939;50.814;6.368;2023-04-29T06:09:43;100004.09;;;15.28;59.90
15678;BME280;7939;50.814;6.368;2023-04-29T06:12:12;100001.47;;;15.29;59.87
15678;BME280;7939;50.814;6.368;2023-04-29T06:14:38;100006.63;;;15.29;59.93
15678;BME280;7939;50.814;6.368;2023-04-29T06:17:05;100006.66;;;15.28;60.18
15678;BME280;7939;50.814;6.368;2023-04-29T06:19:31;100017.81;;;15.27;60.21
15678;BME280;7939;50.814;6.368;2023-04-29T06:21:58;100017.81;;;15.27;59.85
15678;BME280;7939;50.814;6.368;2023-04-29T06:24:25;100019.56;;;15.25;59.83
15678;BME280;7939;50.814;6.368;2023-04-29T06:26:51;100017.00;;;15.25;59.73
15678;BME280;7939;50.814;6.368;2023-04-29T06:29:19;100023.94;;;15.21;60.07
15678;BME280;7939;50.814;6.368;2023-04-29T06:31:46;100022.22;;;15.22;59.83
15678;BME280;7939;50.814;6.368;2023-04-29T06:34:13;100029.06;;;15.20;59.99
15678;BME280;7939;50.814;6.368;2023-04-29T06:36:39;100035.09;;;15.19;60.05
15678;BME280;7939;50.814;6.368;2023-04-29T06:39:06;100036.84;;;15.18;59.76
15678;BME280;7939;50.814;6.368;2023-04-29T06:41:33;100035.94;;;15.19;60.05
15678;BME280;7939;50.814;6.368;2023-04-29T06:44:01;100047.13;;;15.18;59.85
15678;BME280;7939;50.814;6.368;2023-04-29T06:46:29;100038.56;;;15.18;60.24
15678;BME280;7939;50.814;6.368;2023-04-29T06:48:55;100042.88;;;15.16;59.69
15678;BME280;7939;50.814;6.368;2023-04-29T06:51:22;100048.88;;;15.15;59.95
15678;BME280;7939;50.814;6.368;2023-04-29T06:53:49;100054.09;;;15.11;60.19
15678;BME280;7939;50.814;6.368;2023-04-29T06:56:16;100050.59;;;15.14;60.02
15678;BME280;7939;50.814;6.368;2023-04-29T06:58:42;100057.47;;;15.14;60.11
15678;BME280;7939;50.814;6.368;2023-04-29T07:01:09;100066.06;;;15.14;59.79
15678;BME280;7939;50.814;6.368;2023-04-29T07:03:37;100060.06;;;15.14;60.11
15678;BME280;7939;50.814;6.368;2023-04-29T07:06:03;100063.47;;;15.16;59.94
15678;BME280;7939;50.814;6.368;2023-04-29T07:08:30;100064.31;;;15.15;59.85
15678;BME280;7939;50.814;6.368;2023-04-29T07:10:58;100069.50;;;15.13;60.74
15678;BME280;7939;50.814;6.368;2023-04-29T07:13:24;100071.22;;;15.13;60.13
15678;BME280;7939;50.814;6.368;2023-04-29T07:15:51;100075.53;;;15.12;60.30
15678;BME280;7939;50.814;6.368;2023-04-29T07:18:18;100083.25;;;15.12;60.35
15678;BME280;7939;50.814;6.368;2023-04-29T07:20:46;100085.81;;;15.12;59.83
15678;BME280;7939;50.814;6.368;2023-04-29T07:23:13;100084.97;;;15.11;60.20
15678;BME280;7939;50.814;6.368;2023-04-29T07:25:40;100085.81;;;15.12;60.42
15678;BME280;7939;50.814;6.368;2023-04-29T07:28:07;100093.56;;;15.12;60.26
15678;BME280;7939;50.814;6.368;2023-04-29T07:30:33;100088.44;;;15.10;60.13
15678;BME280;7939;50.814;6.368;2023-04-29T07:33:00;100091.84;;;15.11;60.26
15678;BME280;7939;50.814;6.368;2023-04-29T07:35:28;100099.56;;;15.11;60.17
15678;BME280;7939;50.814;6.368;2023-04-29T07:37:56;100102.19;;;15.09;60.00
15678;BME280;7939;50.814;6.368;2023-04-29T07:40:23;100102.19;;;15.09;59.95
15678;BME280;7939;50.814;6.368;2023-04-29T07:42:49;100097.91;;;15.08;60.18
15678;BME280;7939;50.814;6.368;2023-04-29T07:45:16;100098.75;;;15.07;60.19
15678;BME280;7939;50.814;6.368;2023-04-29T07:47:43;100099.59;;;15.08;60.56
15678;BME280;7939;50.814;6.368;2023-04-29T07:50:10;100104.75;;;15.08;60.05
15678;BME280;7939;50.814;6.368;2023-04-29T07:52:36;100108.22;;;15.05;60.47
15678;BME280;7939;50.814;6.368;2023-04-29T07:55:05;100108.22;;;15.05;60.10
15678;BME280;7939;50.814;6.368;2023-04-29T07:57:32;100109.94;;;15.05;60.50
15678;BME280;7939;50.814;6.368;2023-04-29T07:59:58;100117.66;;;15.05;60.68
15678;BME280;7939;50.814;6.368;2023-04-29T08:02:25;100114.31;;;15.00;60.63
15678;BME280;7939;50.814;6.368;2023-04-29T08:04:52;100122.00;;;15.03;60.60
15678;BME280;7939;50.814;6.368;2023-04-29T08:07:20;100122.00;;;15.03;60.50
15678;BME280;7939;50.814;6.368;2023-04-29T08:09:46;100128.00;;;15.02;60.56
15678;BME280;7939;50.814;6.368;2023-04-29T08:12:14;100124.56;;;15.01;60.73
15678;BME280;7939;50.814;6.368;2023-04-29T08:14:41;100134.88;;;15.00;60.60
15678;BME280;7939;50.814;6.368;2023-04-29T08:17:07;100140.97;;;14.94;60.79
15678;BME280;7939;50.814;6.368;2023-04-29T08:19:34;100136.69;;;14.93;61.13
15678;BME280;7939;50.814;6.368;2023-04-29T08:22:01;100144.44;;;14.92;61.28
15678;BME280;7939;50.814;6.368;2023-04-29T08:24:28;100153.00;;;14.92;60.74
15678;BME280;7939;50.814;6.368;2023-04-29T08:26:55;100152.13;;;14.93;60.74
15678;BME280;7939;50.814;6.368;2023-04-29T08:29:24;100154.69;;;14.93;60.69
15678;BME280;7939;50.814;6.368;2023-04-29T08:31:51;100152.97;;;14.94;60.75
15678;BME280;7939;50.814;6.368;2023-04-29T08:34:18;100157.28;;;14.93;60.67
15678;BME280;7939;50.814;6.368;2023-04-29T08:36:44;100160.69;;;14.94;61.17
15678;BME280;7939;50.814;6.368;2023-04-29T08:39:14;100167.56;;;14.93;61.25
15678;BME280;7939;50.814;6.368;2023-04-29T08:41:40;100153.84;;;14.93;61.12
15678;BME280;7939;50.814;6.368;2023-04-29T08:44:09;100165.03;;;14.90;61.34
15678;BME280;7939;50.814;6.368;2023-04-29T08:46:38;100165.03;;;14.90;60.73
15678;BME280;7939;50.814;6.368;2023-04-29T08:49:06;100176.19;;;14.91;61.35
15678;BME280;7939;50.814;6.368;2023-04-29T08:51:33;100175.31;;;14.92;61.32
15678;BME280;7939;50.814;6.368;2023-04-29T08:54:00;100180.50;;;14.90;60.80
15678;BME280;7939;50.814;6.368;2023-04-29T08:56:27;100182.22;;;14.87;61.55
15678;BME280;7939;50.814;6.368;2023-04-29T08:58:56;100182.22;;;14.87;61.22
15678;BME280;7939;50.814;6.368;2023-04-29T09:01:26;100184.81;;;14.85;61.28
15678;BME280;7939;50.814;6.368;2023-04-29T09:04:01;100182.19;;;14.88;61.18
15678;BME280;7939;50.814;6.368;2023-04-29T09:06:30;100178.03;;;14.78;61.33
15678;BME280;7939;50.814;6.368;2023-04-29T09:08:58;100181.41;;;14.81;61.48
15678;BME280;7939;50.814;6.368;2023-04-29T09:11:26;100181.41;;;14.84;61.94
15678;BME280;7939;50.814;6.368;2023-04-29T09:13:57;100176.22;;;14.86;61.55
15678;BME280;7939;50.814;6.368;2023-04-29T09:16:24;100187.38;;;14.87;61.63
15678;BME280;7939;50.814;6.368;2023-04-29T09:18:51;100188.28;;;14.81;61.39
15678;BME280;7939;50.814;6.368;2023-04-29T09:21:21;100183.16;;;14.81;61.19
15678;BME280;7939;50.814;6.368;2023-04-29T09:23:50;100182.25;;;14.85;61.56
15678;BME280;7939;50.814;6.368;2023-04-29T09:26:17;100190.81;;;14.86;61.06
15678;BME280;7939;50.814;6.368;2023-04-29T09:28:44;100180.50;;;14.87;61.20
15678;BME280;7939;50.814;6.368;2023-04-29T09:31:12;100191.69;;;14.83;60.74
15678;BME280;7939;50.814;6.368;2023-04-29T09:33:49;100198.56;;;14.82;60.79
15678;BME280;7939;50.814;6.368;2023-04-29T09:36:36;100202.88;;;14.80;60.50
15678;BME280;7939;50.814;6.368;2023-04-29T09:39:03;100201.13;;;14.82;61.04
15678;BME280;7939;50.814;6.368;2023-04-29T09:41:37;100213.22;;;14.77;60.88
15678;BME280;7939;50.814;6.368;2023-04-29T09:44:04;100208.88;;;14.81;60.69
15678;BME280;7939;50.814;6.368;2023-04-29T09:46:32;100213.16;;;14.83;60.92
15678;BME280;7939;50.814;6.368;2023-04-29T09:48:59;100218.25;;;14.87;60.84
15678;BME280;7939;50.814;6.368;2023-04-29T09:51:26;100221.69;;;14.87;60.62
15678;BME280;7939;50.814;6.368;2023-04-29T09:53:54;100222.59;;;14.81;60.61
15678;BME280;7939;50.814;6.368;2023-04-29T09:56:20;100229.47;;;14.79;60.94
15678;BME280;7939;50.814;6.368;2023-04-29T09:58:48;100231.19;;;14.79;60.55
15678;BME280;7939;50.814;6.368;2023-04-29T10:01:15;100239.78;;;14.79;60.29
15678;BME280;7939;50.814;6.368;2023-04-29T10:03:46;100239.78;;;14.78;60.92
15678;BME280;7939;50.814;6.368;2023-04-29T10:06:15;100240.63;;;14.80;60.93
15678;BME280;7939;50.814;6.368;2023-04-29T10:08:43;100232.88;;;14.81;60.42
15678;BME280;7939;50.814;6.368;2023-04-29T10:11:11;100237.16;;;14.82;60.76
15678;BME280;7939;50.814;6.368;2023-04-29T10:13:41;100232.00;;;14.84;61.07
15678;BME280;7939;50.814;6.368;2023-04-29T10:16:19;100233.72;;;14.85;60.84
15678;BME280;7939;50.814;6.368;2023-04-29T10:18:53;100240.50;;;14.89;60.67
15678;BME280;7939;50.814;6.368;2023-04-29T10:21:25;100235.38;;;14.91;61.06
15678;BME280;7939;50.814;6.368;2023-04-29T10:23:53;100233.63;;;14.93;60.89
15678;BME280;7939;50.814;6.368;2023-04-29T10:26:25;100235.31;;;14.95;61.02
15678;BME280;7939;50.814;6.368;2023-04-29T10:28:54;100233.59;;;14.97;60.62
15678;BME280;7939;50.814;6.368;2023-04-29T10:31:21;100234.38;;;15.01;60.29
15678;BME280;7939;50.814;6.368;2023-04-29T10:33:54;100233.50;;;15.02;60.80
15678;BME280;7939;50.814;6.368;2023-04-29T10:36:21;100242.09;;;15.04;60.41
15678;BME280;7939;50.814;6.368;2023-04-29T10:38:50;100241.22;;;15.05;60.88
15678;BME280;7939;50.814;6.368;2023-04-29T10:41:21;100242.91;;;15.07;60.31
15678;BME280;7939;50.814;6.368;2023-04-29T10:43:50;100244.63;;;15.08;60.61
15678;BME280;7939;50.814;6.368;2023-04-29T10:46:18;100244.59;;;15.10;60.28
15678;BME280;7939;50.814;6.368;2023-04-29T10:48:46;100242.00;;;15.11;60.04
15678;BME280;7939;50.814;6.368;2023-04-29T10:51:27;100243.69;;;15.14;60.17
15678;BME280;7939;50.814;6.368;2023-04-29T10:54:01;100245.41;;;15.15;59.73
15678;BME280;7939;50.814;6.368;2023-04-29T10:56:42;100241.94;;;15.18;60.34
15678;BME280;7939;50.814;6.368;2023-04-29T10:59:16;100247.94;;;15.18;60.13
15678;BME280;7939;50.814;6.368;2023-04-29T11:01:47;100247.91;;;15.20;59.82
15678;BME280;7939;50.814;6.368;2023-04-29T11:04:14;100249.63;;;15.19;60.03
15678;BME280;7939;50.814;6.368;2023-04-29T11:06:45;100247.91;;;15.20;59.84
15678;BME280;7939;50.814;6.368;2023-04-29T11:09:14;100253.94;;;15.19;60.11
15678;BME280;7939;50.814;6.368;2023-04-29T11:11:46;100255.63;;;15.20;59.40
15678;BME280;7939;50.814;6.368;2023-04-29T11:14:20;100251.34;;;15.20;59.14
15678;BME280;7939;50.814;6.368;2023-04-29T11:16:50;100247.94;;;15.18;58.98
15678;BME280;7939;50.814;6.368;2023-04-29T11:19:17;100248.81;;;15.17;59.47
15678;BME280;7939;50.814;6.368;2023-04-29T11:21:45;100252.25;;;15.16;59.15
15678;BME280;7939;50.814;6.368;2023-04-29T11:24:12;100245.38;;;15.17;60.11
15678;BME280;7939;50.814;6.368;2023-04-29T11:26:41;100254.78;;;15.19;59.72
15678;BME280;7939;50.814;6.368;2023-04-29T11:29:09;100245.34;;;15.18;59.55
15678;BME280;7939;50.814;6.368;2023-04-29T11:31:37;100245.34;;;15.21;60.11
15678;BME280;7939;50.814;6.368;2023-04-29T11:34:04;100253.91;;;15.20;59.38
15678;BME280;7939;50.814;6.368;2023-04-29T11:36:32;100259.09;;;15.17;59.75
15678;BME280;7939;50.814;6.368;2023-04-29T11:38:59;100255.69;;;15.14;59.71
15678;BME280;7939;50.814;6.368;2023-04-29T11:41:26;100260.00;;;15.13;59.78
15678;BME280;7939;50.814;6.368;2023-04-29T11:43:54;100265.19;;;15.10;59.91
15678;BME280;7939;50.814;6.368;2023-04-29T11:46:21;100266.03;;;15.10;60.16
15678;BME280;7939;50.814;6.368;2023-04-29T11:48:49;100270.31;;;15.11;60.07
15678;BME280;7939;50.814;6.368;2023-04-29T11:51:17;100274.63;;;15.08;60.03
15678;BME280;7939;50.814;6.368;2023-04-29T11:53:44;100262.66;;;15.08;59.57
15678;BME280;7939;50.814;6.368;2023-04-29T11:56:11;100273.78;;;15.10;59.98
15678;BME280;7939;50.814;6.368;2023-04-29T11:58:38;100273.75;;;15.12;59.89
15678;BME280;7939;50.814;6.368;2023-04-29T12:01:05;100277.16;;;15.14;59.23
15678;BME280;7939;50.814;6.368;2023-04-29T12:03:33;100279.75;;;15.13;59.68
15678;BME280;7939;50.814;6.368;2023-04-29T12:06:02;100283.16;;;15.15;59.62
15678;BME280;7939;50.814;6.368;2023-04-29T12:08:29;100283.22;;;15.10;59.83
15678;BME280;7939;50.814;6.368;2023-04-29T12:10:58;100281.50;;;15.09;60.09
15678;BME280;7939;50.814;6.368;2023-04-29T12:13:26;100280.66;;;15.08;59.63
15678;BME280;7939;50.814;6.368;2023-04-29T12:15:54;100281.50;;;15.09;60.04
15678;BME280;7939;50.814;6.368;2023-04-29T12:18:21;100279.78;;;15.11;59.85
15678;BME280;7939;50.814;6.368;2023-04-29T12:20:49;100282.34;;;15.11;59.63
15678;BME280;7939;50.814;6.368;2023-04-29T12:23:20;100276.31;;;15.12;59.52
15678;BME280;7939;50.814;6.368;2023-04-29T12:25:49;100279.75;;;15.13;59.74
15678;BME280;7939;50.814;6.368;2023-04-29T12:28:16;100278.88;;;15.14;59.85
15678;BME280;7939;50.814;6.368;2023-04-29T12:30:43;100283.19;;;15.11;59.95
15678;BME280;7939;50.814;6.368;2023-04-29T12:33:15;100286.59;;;15.14;59.71
15678;BME280;7939;50.814;6.368;2023-04-29T12:35:41;100279.72;;;15.16;60.19
15678;BME280;7939;50.814;6.368;2023-04-29T12:38:08;100285.72;;;15.16;59.98
15678;BME280;7939;50.814;6.368;2023-04-29T12:40:36;100284.00;;;15.17;60.01
15678;BME280;7939;50.814;6.368;2023-04-29T12:43:07;100290.88;;;15.16;60.05
15678;BME280;7939;50.814;6.368;2023-04-29T12:45:33;100288.31;;;15.16;59.78
15678;BME280;7939;50.814;6.368;2023-04-29T12:48:01;100293.44;;;15.18;59.62
15678;BME280;7939;50.814;6.368;2023-04-29T12:50:32;100284.00;;;15.17;60.24
15678;BME280;7939;50.814;6.368;2023-04-29T12:53:01;100288.28;;;15.18;59.35
15678;BME280;7939;50.814;6.368;2023-04-29T12:55:28;100284.84;;;15.17;60.35
15678;BME280;7939;50.814;6.368;2023-04-29T12:57:56;100284.00;;;15.17;59.88
15678;BME280;7939;50.814;6.368;2023-04-29T13:00:23;100293.47;;;15.13;60.21
15678;BME280;7939;50.814;6.368;2023-04-29T13:02:50;100300.38;;;15.11;60.29
15678;BME280;7939;50.814;6.368;2023-04-29T13:05:17;100302.91;;;15.16;60.34
15678;BME280;7939;50.814;6.368;2023-04-29T13:07:44;100291.72;;;15.17;60.17
15678;BME280;7939;50.814;6.368;2023-04-29T13:10:10;100291.69;;;15.18;60.18